Inola, Oklahoma
Current Conditions -  °F | °C
As of 1:15 PM on Tuesday 21 Oct 2014 (Local Time) from KGCM Reporting Station
Clear Clear  
Wind Chill: 75°   Ceiling: Unl
Heat Index: 75°   Visibility: 10mi
Dew Point: 59°   Wind: 7mph
Humidity: 57%   Direction: 130°SE
Pressure: 30.12"   Gusts: NA
Location:  36.15°N, 95.51°W
Report Text: KGCM 211815Z AUTO 13006KT 10SM CLR 24/15 A3012 RMK AO2
Loading
Personal Weather Stations






























Interactive Weather Map
Tropical Storm Tracking
New forecast layout! Learn more

10-Day Weather Forecast

Advertisements
Track Severe Weather on mobile